EDT,Max TemperatureF,Mean TemperatureF,Min TemperatureF,Max Dew PointF,MeanDew PointF,Min DewpointF,Max Humidity, Mean Humidity, Min Humidity, Max Sea Level PressureIn, Mean Sea Level PressureIn, Min Sea Level PressureIn, Max VisibilityMiles, Mean VisibilityMiles, Min VisibilityMiles, Max Wind SpeedMPH, Mean Wind SpeedMPH, Max Gust SpeedMPH,PrecipitationIn, CloudCover, Events, WindDirDegrees
2013-7-1,57,54,51,55,53,48,100,96,82,,,,1,0,0,25,16,32,0.85,7,Fog-Rain,218
2013-7-2,57,55,53,57,55,54,100,100,100,,,,0,0,0,32,23,38,1.68,,Fog-Rain,245
2013-7-3,59,56,53,59,57,54,100,100,100,,,,0,0,0,41,31,48,0.21,,Fog-Rain-Thunderstorm,287
2013-7-4,62,58,55,63,57,55,100,100,94,,,,20,1,0,66,35,72,0.15,8,Fog-Rain,292
2013-7-5,60,56,51,61,56,52,100,100,100,,,,0,0,0,67,53,72,0.02,,Fog,292
2013-7-6,57,54,51,57,54,50,100,99,88,,,,0,0,0,58,48,63,0.01,7,Fog-Rain,298
2013-7-7,57,54,50,55,53,46,100,98,82,,,,15,1,0,54,42,58,0.01,8,Fog,301
2013-7-8,55,53,51,55,54,52,100,99,94,,,,4,0,0,24,17,31,1.55,8,Fog-Rain,308
2013-7-9,60,56,51,57,53,46,100,93,67,,,,0,0,0,10,4,,0.10,5,Fog-Rain,279
2013-7-10,55,53,51,55,54,48,100,99,77,,,,0,0,0,37,22,44,1.19,3,Fog-Rain-Thunderstorm,234
2013-7-11,57,52,46,57,51,41,100,97,81,,,,0,0,0,50,34,55,0.89,4,Fog-Rain,307
2013-7-12,60,53,46,50,45,36,88,77,62,,,,1,1,0,12,8,,0.00,5,,305
2013-7-13,62,55,48,57,47,32,100,77,47,,,,0,0,0,22,8,,0.00,4,Fog,254
2013-7-14,60,56,51,61,55,46,100,96,59,,,,10,1,0,25,18,36,0.05,7,Fog,318
2013-7-15,60,56,53,59,55,54,100,96,82,,,,5,0,0,39,27,47,0.00,5,Fog,317
2013-7-16,59,56,53,57,54,43,100,90,55,,,,6,1,0,37,25,40,0.00,4,Fog,344
2013-7-17,62,58,55,59,54,45,100,88,63,,,,20,8,0,55,21,69,1.72,4,Fog-Rain-Thunderstorm,297
2013-7-18,60,56,53,61,56,48,100,96,77,,,,20,1,0,54,35,60,0.68,4,Fog-Rain,302
2013-7-19,64,58,53,61,58,54,100,98,83,,,,20,4,0,75,49,79,0.24,8,Fog-Rain,281
2013-7-20,55,50,46,55,52,46,100,100,100,,,,0,0,0,63,51,69,0.04,,Fog-Rain,287
2013-7-21,51,48,44,46,44,41,100,89,71,,,,20,3,0,36,23,28,0.00,6,Fog,282
2013-7-22,51,48,46,52,49,46,100,98,87,,,,3,0,0,28,21,34,0.00,7,Fog,246
2013-7-23,55,52,50,55,51,50,100,99,94,,,,20,2,0,39,19,32,1.10,8,Fog-Rain,229
2013-7-24,51,44,37,52,42,14,100,89,24,,,,0,0,0,43,31,47,0.09,2,Fog,288
2013-7-25,55,50,46,52,34,19,100,60,32,,,,0,0,0,12,6,,0.00,5,Fog,210
2013-7-26,51,50,46,50,48,41,100,96,67,,,,0,0,0,29,13,37,0.09,8,Fog-Rain,55
2013-7-27,59,52,46,59,47,30,100,85,41,,,,1,0,0,33,19,,0.00,4,Fog,260
2013-7-28,59,52,46,52,47,19,100,88,30,,,,0,0,0,32,21,39,0.19,6,Fog-Rain,183
2013-7-29,53,50,46,54,50,46,100,99,88,,,,0,0,0,34,21,41,0.47,6,Fog-Rain-Thunderstorm,248
2013-7-30,46,44,41,46,44,41,100,98,87,,,,2,0,0,45,23,51,0.00,6,Fog-Rain,301
2013-7-31,55,48,41,46,43,39,100,84,62,,,,5,1,0,43,27,52,0.00,5,Fog,300